createdAt,value
2022-08-07T00:00:26.086Z,51.70
2022-08-07T00:02:57.777Z,51.80
2022-08-07T00:05:25.763Z,52.40
2022-08-07T00:07:59.609Z,52.50
2022-08-07T00:10:31.418Z,52.10
2022-08-07T00:13:09.944Z,52.30
2022-08-07T00:15:50.958Z,52.70
2022-08-07T00:18:23.865Z,52.20
2022-08-07T00:21:01.876Z,52.50
2022-08-07T00:23:32.577Z,53.00
2022-08-07T00:26:10.856Z,52.90
2022-08-07T00:28:45.608Z,53.10
2022-08-07T00:31:16.665Z,53.30
2022-08-07T00:33:47.443Z,53.40
2022-08-07T00:36:16.809Z,53.40
2022-08-07T00:38:44.790Z,53.60
2022-08-07T00:41:15.103Z,54.10
2022-08-07T00:44:00.627Z,54.00
2022-08-07T00:46:30.980Z,54.00
2022-08-07T00:49:02.751Z,54.10
2022-08-07T00:51:58.292Z,54.20
2022-08-07T00:54:19.854Z,54.80
2022-08-07T00:56:49.656Z,54.90
2022-08-07T00:59:20.078Z,54.70
2022-08-07T01:01:59.901Z,54.80
2022-08-07T01:04:30.278Z,54.70
2022-08-07T01:07:01.434Z,54.60
2022-08-07T01:10:03.922Z,54.90
2022-08-07T01:12:29.690Z,55.10
2022-08-07T01:15:01.704Z,55.30
2022-08-07T01:17:33.079Z,55.50
2022-08-07T01:20:08.301Z,55.20
2022-08-07T01:22:46.851Z,55.20
2022-08-07T01:25:53.500Z,55.20
2022-08-07T01:28:17.003Z,55.20
2022-08-07T01:30:49.248Z,55.00
2022-08-07T01:33:20.437Z,54.90
2022-08-07T01:35:54.030Z,55.70
2022-08-07T01:38:29.296Z,56.30
2022-08-07T01:41:03.427Z,56.20
2022-08-07T01:43:34.521Z,56.50
2022-08-07T01:46:08.314Z,56.30
2022-08-07T01:48:46.469Z,56.20
2022-08-07T01:52:01.103Z,56.50
2022-08-07T01:54:33.110Z,56.50
2022-08-07T01:57:08.520Z,56.10
2022-08-07T01:59:44.131Z,56.30
2022-08-07T02:02:32.814Z,55.90
2022-08-07T02:05:05.943Z,56.10
2022-08-07T02:07:50.091Z,55.80
2022-08-07T02:10:26.484Z,55.80
2022-08-07T02:12:57.567Z,56.00
2022-08-07T02:15:34.241Z,56.20
2022-08-07T02:18:03.934Z,56.30
2022-08-07T02:20:33.116Z,56.80
2022-08-07T02:23:04.123Z,56.60
2022-08-07T02:26:26.550Z,56.70
2022-08-07T02:28:27.326Z,56.60
2022-08-07T02:31:10.225Z,56.70
2022-08-07T02:34:01.828Z,56.90
2022-08-07T02:36:36.896Z,57.20
2022-08-07T02:39:17.231Z,57.60
2022-08-07T02:42:01.979Z,58.40
2022-08-07T02:44:34.714Z,58.30
2022-08-07T02:47:07.924Z,58.20
2022-08-07T02:49:57.752Z,58.60
2022-08-07T02:52:34.152Z,58.50
2022-08-07T02:55:15.429Z,58.80
2022-08-07T02:57:59.809Z,58.70
2022-08-07T03:00:30.232Z,58.80
2022-08-07T03:03:00.116Z,58.80
2022-08-07T03:05:37.191Z,59.00
2022-08-07T03:08:10.525Z,58.90
2022-08-07T03:10:46.574Z,59.00
2022-08-07T03:13:19.616Z,59.10
2022-08-07T03:15:56.559Z,59.00
2022-08-07T03:18:35.067Z,59.00
2022-08-07T03:21:08.420Z,59.10
2022-08-07T03:24:19.965Z,59.10
2022-08-07T03:26:32.307Z,59.40
2022-08-07T03:29:11.001Z,59.50
2022-08-07T03:31:46.463Z,59.70
2022-08-07T03:34:22.615Z,59.90
2022-08-07T03:36:58.010Z,59.70
2022-08-07T03:39:46.053Z,59.80
2022-08-07T03:42:18.616Z,59.80
2022-08-07T03:44:53.589Z,60.20
2022-08-07T03:47:22.648Z,60.00
2022-08-07T03:49:52.684Z,60.00
2022-08-07T03:52:28.563Z,59.70
2022-08-07T03:55:07.284Z,60.10
2022-08-07T03:58:34.531Z,60.50
2022-08-07T04:00:33.827Z,60.70
2022-08-07T04:03:04.422Z,60.90
2022-08-07T04:05:40.455Z,61.00
2022-08-07T04:08:16.299Z,61.00
2022-08-07T04:10:54.128Z,61.80
2022-08-07T04:14:10.726Z,61.60
2022-08-07T04:16:31.326Z,62.50
2022-08-07T04:19:04.275Z,61.70
2022-08-07T04:21:48.034Z,61.60
2022-08-07T04:24:38.694Z,62.80
2022-08-07T04:27:15.130Z,62.30
2022-08-07T04:30:01.113Z,62.10
2022-08-07T04:32:38.924Z,62.00
2022-08-07T04:35:13.756Z,62.00
2022-08-07T04:38:03.181Z,62.10
2022-08-07T04:40:32.443Z,62.30
2022-08-07T04:43:03.201Z,62.50
2022-08-07T04:46:06.440Z,62.80
2022-08-07T04:49:03.323Z,63.00
2022-08-07T04:52:00.098Z,62.50
2022-08-07T04:54:40.350Z,61.90
2022-08-07T04:58:12.320Z,61.60
2022-08-07T05:00:24.129Z,61.60
2022-08-07T05:04:01.145Z,61.60
2022-08-07T05:06:28.227Z,61.30
2022-08-07T05:09:15.657Z,60.40
2022-08-07T05:11:57.172Z,59.20
2022-08-07T05:14:56.349Z,57.90
2022-08-07T05:17:51.775Z,56.60
2022-08-07T05:20:23.632Z,54.80
2022-08-07T05:22:56.480Z,53.70
2022-08-07T05:25:25.630Z,52.10
2022-08-07T05:28:20.797Z,50.60
2022-08-07T05:30:53.297Z,48.80
2022-08-07T05:33:22.595Z,47.30
2022-08-07T05:35:52.882Z,46.10
2022-08-07T05:39:00.561Z,44.80
2022-08-07T05:41:15.805Z,43.50
2022-08-07T05:44:12.255Z,42.40
2022-08-07T05:46:38.377Z,41.00
2022-08-07T05:49:12.223Z,40.50
2022-08-07T05:51:47.079Z,39.80
2022-08-07T05:54:30.959Z,38.70
2022-08-07T05:57:09.043Z,38.40
2022-08-07T05:59:57.956Z,37.70
2022-08-07T06:02:31.772Z,36.90
2022-08-07T06:05:15.621Z,36.60
2022-08-07T06:08:14.504Z,35.70
2022-08-07T06:10:36.455Z,35.00
2022-08-07T06:13:06.368Z,34.20
2022-08-07T06:15:43.127Z,33.60
2022-08-07T06:18:18.244Z,33.40
2022-08-07T06:20:50.068Z,32.90
2022-08-07T06:24:37.229Z,32.10
2022-08-07T06:26:27.629Z,31.90
2022-08-07T06:28:59.929Z,31.00
2022-08-07T06:31:46.831Z,30.60
2022-08-07T06:34:20.554Z,30.40
2022-08-07T06:36:51.798Z,30.20
2022-08-07T06:40:16.016Z,29.80
2022-08-07T06:42:33.043Z,29.20
2022-08-07T06:45:18.840Z,29.00
2022-08-07T06:47:58.700Z,28.20
2022-08-07T06:50:36.316Z,28.30
2022-08-07T06:53:18.669Z,27.60
2022-08-07T06:56:01.532Z,27.50
2022-08-07T06:58:35.899Z,27.10
2022-08-07T07:01:12.430Z,27.00
2022-08-07T07:03:48.148Z,27.10
2022-08-07T07:06:23.774Z,26.80
2022-08-07T07:08:55.115Z,26.20
2022-08-07T07:12:07.823Z,26.30
2022-08-07T07:14:16.326Z,25.90
2022-08-07T07:16:50.790Z,25.40
2022-08-07T07:19:55.312Z,25.50
2022-08-07T07:22:39.826Z,25.00
2022-08-07T07:25:14.214Z,24.80
2022-08-07T07:28:42.611Z,25.00
2022-08-07T07:31:25.461Z,25.10
2022-08-07T07:34:03.738Z,24.40
2022-08-07T07:36:33.618Z,24.30
2022-08-07T07:39:04.512Z,24.40
2022-08-07T07:42:02.182Z,24.20
2022-08-07T07:44:26.022Z,24.10
2022-08-07T07:47:04.249Z,24.30
2022-08-07T07:50:35.902Z,23.90
2022-08-07T07:52:33.140Z,24.10
2022-08-07T07:55:03.399Z,23.80
2022-08-07T07:57:50.330Z,23.40
2022-08-07T08:00:29.361Z,23.10
2022-08-07T08:03:06.310Z,23.10
2022-08-07T08:05:50.834Z,23.40
2022-08-07T08:08:35.707Z,23.60
2022-08-07T08:11:08.079Z,23.30
2022-08-07T08:13:53.188Z,22.70
2022-08-07T08:16:35.135Z,22.50
2022-08-07T08:19:09.737Z,22.00
2022-08-07T08:22:09.827Z,21.90
2022-08-07T08:25:18.821Z,21.90
2022-08-07T08:27:56.530Z,22.10
2022-08-07T08:30:29.055Z,22.10
2022-08-07T08:33:00.103Z,21.80
2022-08-07T08:35:43.111Z,22.20
2022-08-07T08:38:19.849Z,21.80
2022-08-07T08:41:13.085Z,22.00
2022-08-07T08:44:10.888Z,22.30
2022-08-07T08:47:01.537Z,22.00
2022-08-07T08:50:02.183Z,21.70
2022-08-07T08:52:40.924Z,22.00
2022-08-07T08:55:53.915Z,22.10
2022-08-07T08:58:37.029Z,22.40
2022-08-07T09:01:40.194Z,22.00
2022-08-07T09:04:36.493Z,22.80
2022-08-07T09:07:15.944Z,22.50
2022-08-07T09:09:59.027Z,22.40
2022-08-07T09:13:10.710Z,22.40
2022-08-07T09:16:30.703Z,22.70
2022-08-07T09:19:52.041Z,22.80
2022-08-07T09:24:31.834Z,23.10
2022-08-07T09:25:54.470Z,23.10
2022-08-07T09:30:05.169Z,23.10
2022-08-07T09:32:23.708Z,23.40
2022-08-07T09:36:04.550Z,22.90
2022-08-07T09:38:36.631Z,23.00
2022-08-07T09:41:43.293Z,22.80
2022-08-07T09:44:46.499Z,22.60
2022-08-07T09:48:00.907Z,22.40
2022-08-07T09:50:59.488Z,22.40
2022-08-07T09:53:41.272Z,22.60
2022-08-07T09:56:34.009Z,22.50
2022-08-07T09:59:14.054Z,22.90
2022-08-07T10:02:01.478Z,22.70
2022-08-07T10:04:53.011Z,23.30
2022-08-07T10:07:53.524Z,23.30
2022-08-07T10:11:07.741Z,23.40
2022-08-07T10:14:00.200Z,23.80
2022-08-07T10:17:14.190Z,23.90
2022-08-07T10:20:20.616Z,24.40
2022-08-07T10:23:02.568Z,24.50
2022-08-07T10:25:52.909Z,25.00
2022-08-07T10:28:49.664Z,25.20
2022-08-07T10:31:39.379Z,25.40
2022-08-07T10:34:37.366Z,25.40
2022-08-07T10:38:00.669Z,25.80
2022-08-07T10:40:33.319Z,26.20
2022-08-07T10:43:05.605Z,26.20
2022-08-07T10:45:57.353Z,26.20
2022-08-07T10:48:48.809Z,26.80
2022-08-07T10:51:38.914Z,27.20
2022-08-07T10:54:33.635Z,26.80
2022-08-07T10:57:34.568Z,26.70
2022-08-07T11:00:39.090Z,27.10
2022-08-07T11:03:11.159Z,26.80
2022-08-07T11:05:52.640Z,27.00
2022-08-07T11:08:36.159Z,26.90
2022-08-07T11:11:09.523Z,27.30
2022-08-07T11:14:44.810Z,26.70
2022-08-07T11:16:54.735Z,26.70
2022-08-07T11:19:55.835Z,27.00
2022-08-07T11:22:45.601Z,27.10
2022-08-07T11:25:24.251Z,27.10
2022-08-07T11:28:08.600Z,27.20
2022-08-07T11:31:02.167Z,27.30
2022-08-07T11:33:53.691Z,27.30
2022-08-07T11:37:03.040Z,27.70
2022-08-07T11:40:00.087Z,27.30
2022-08-07T11:42:44.328Z,27.10
2022-08-07T11:45:53.356Z,27.10
2022-08-07T11:49:27.476Z,27.80
2022-08-07T11:51:50.544Z,27.30
2022-08-07T11:55:13.060Z,27.20
2022-08-07T11:57:59.989Z,27.30
2022-08-07T12:00:40.388Z,27.50
2022-08-07T12:03:41.769Z,27.60
2022-08-07T12:06:37.358Z,27.70
2022-08-07T12:09:16.208Z,27.50
2022-08-07T12:12:09.079Z,27.40
2022-08-07T12:14:55.233Z,27.40
2022-08-07T12:17:58.997Z,27.00
2022-08-07T12:20:41.211Z,27.10
2022-08-07T12:24:05.632Z,26.80
2022-08-07T12:26:34.463Z,27.40
2022-08-07T12:29:37.604Z,26.70
2022-08-07T12:32:32.546Z,26.90
2022-08-07T12:35:05.655Z,26.70
2022-08-07T12:38:12.454Z,26.90
2022-08-07T12:40:47.429Z,27.60
2022-08-07T12:44:04.498Z,27.20
2022-08-07T12:46:32.718Z,26.60
2022-08-07T12:49:44.380Z,26.60
2022-08-07T12:52:36.159Z,27.00
2022-08-07T12:55:16.344Z,26.60
2022-08-07T12:58:01.013Z,26.30
2022-08-07T13:00:57.692Z,26.70
2022-08-07T13:03:56.232Z,26.60
2022-08-07T13:06:54.392Z,26.30
2022-08-07T13:10:19.440Z,26.10
2022-08-07T13:12:41.471Z,26.20
2022-08-07T13:15:35.703Z,26.50
2022-08-07T13:18:34.166Z,26.10
2022-08-07T13:21:50.109Z,26.20
2022-08-07T13:24:19.479Z,26.00
2022-08-07T13:27:08.292Z,26.00
2022-08-07T13:29:47.770Z,26.10
2022-08-07T13:32:37.722Z,26.10
2022-08-07T13:35:21.430Z,26.20
2022-08-07T13:37:58.650Z,26.40
2022-08-07T13:40:35.712Z,26.20
2022-08-07T13:43:15.308Z,26.10
2022-08-07T13:46:12.936Z,26.00
2022-08-07T13:48:38.497Z,26.10
2022-08-07T13:51:26.863Z,26.30
2022-08-07T13:54:02.097Z,26.30
2022-08-07T13:56:40.810Z,25.90
2022-08-07T13:59:13.756Z,26.00
2022-08-07T14:02:12.670Z,26.10
2022-08-07T14:04:47.485Z,26.20
2022-08-07T14:07:22.954Z,26.10
2022-08-07T14:10:17.712Z,26.00
2022-08-07T14:12:55.218Z,26.40
2022-08-07T14:15:36.088Z,26.20
2022-08-07T14:18:57.069Z,26.10
2022-08-07T14:22:03.340Z,26.00
2022-08-07T14:24:35.443Z,25.80
2022-08-07T14:28:09.407Z,25.80
2022-08-07T14:30:10.467Z,26.10
2022-08-07T14:32:45.815Z,25.70
2022-08-07T14:35:45.141Z,25.60
2022-08-07T14:38:26.696Z,25.60
2022-08-07T14:41:05.864Z,25.60
2022-08-07T14:43:57.076Z,25.50
2022-08-07T14:46:33.202Z,25.30
2022-08-07T14:49:55.844Z,25.40
2022-08-07T14:52:04.844Z,25.60
2022-08-07T14:57:54.795Z,26.00
2022-08-07T15:00:29.669Z,26.00
2022-08-07T15:03:19.161Z,25.80
2022-08-07T15:05:54.202Z,25.60
2022-08-07T15:11:48.669Z,25.90
2022-08-07T15:14:21.008Z,26.00
2022-08-07T15:17:04.278Z,26.10
2022-08-07T15:20:30.256Z,26.10
2022-08-07T15:22:53.730Z,26.10
2022-08-07T15:25:36.682Z,26.00
2022-08-07T15:31:06.540Z,26.00
2022-08-07T15:33:36.342Z,26.10
2022-08-07T15:36:07.787Z,26.00
2022-08-07T15:42:43.668Z,25.80
2022-08-07T15:44:23.807Z,26.10
2022-08-07T15:47:03.398Z,26.00
2022-08-07T15:52:29.978Z,25.90
2022-08-07T15:55:04.694Z,25.70
2022-08-07T15:57:39.932Z,25.50
2022-08-07T16:00:31.564Z,25.70
2022-08-07T16:03:21.803Z,25.80
2022-08-07T16:05:58.677Z,26.00
2022-08-07T16:08:37.757Z,25.60
2022-08-07T16:11:27.171Z,25.70
2022-08-07T16:14:02.954Z,26.00
2022-08-07T16:16:57.109Z,26.10
2022-08-07T16:19:58.639Z,26.30
2022-08-07T16:22:36.306Z,26.20
2022-08-07T16:25:52.493Z,26.10
2022-08-07T16:30:05.547Z,25.90
2022-08-07T16:31:58.658Z,25.90
2022-08-07T16:34:48.585Z,25.90
2022-08-07T16:38:03.011Z,26.00
2022-08-07T16:41:02.200Z,26.20
2022-08-07T16:44:02.736Z,26.10
2022-08-07T16:47:14.389Z,25.60
2022-08-07T16:50:27.097Z,25.90
2022-08-07T16:52:57.369Z,26.00
2022-08-07T16:55:52.255Z,26.10
2022-08-07T16:58:54.401Z,26.40
2022-08-07T17:01:27.565Z,26.20
2022-08-07T17:04:24.548Z,26.20
2022-08-07T17:07:17.751Z,26.20
2022-08-07T17:10:32.846Z,26.20
2022-08-07T17:13:16.538Z,26.30
2022-08-07T17:16:01.801Z,26.20
2022-08-07T17:18:33.060Z,26.10
2022-08-07T17:21:03.800Z,26.40
2022-08-07T17:23:53.561Z,26.20
2022-08-07T17:26:30.032Z,26.30
2022-08-07T17:30:13.216Z,26.10
2022-08-07T17:32:35.371Z,25.90
2022-08-07T17:35:51.679Z,26.00
2022-08-07T17:38:34.392Z,26.10
2022-08-07T17:42:00.643Z,26.30
2022-08-07T17:44:35.083Z,26.20
2022-08-07T17:47:42.220Z,26.40
2022-08-07T17:50:35.779Z,26.60
2022-08-07T17:53:58.261Z,26.80
2022-08-07T17:56:15.138Z,26.90
2022-08-07T17:59:03.536Z,27.20
2022-08-07T18:01:43.887Z,27.10
2022-08-07T18:04:36.592Z,27.40
2022-08-07T18:07:20.762Z,27.60
2022-08-07T18:10:29.109Z,27.80
2022-08-07T18:13:40.982Z,27.80
2022-08-07T18:16:32.722Z,27.80
2022-08-07T18:21:09.768Z,28.00
2022-08-07T18:22:33.128Z,28.10
2022-08-07T18:25:19.196Z,28.20
2022-08-07T18:28:08.736Z,28.20
2022-08-07T18:31:08.783Z,28.30
2022-08-07T18:34:03.849Z,28.20
2022-08-07T18:36:53.827Z,28.40
2022-08-07T18:40:06.998Z,28.60
2022-08-07T18:42:59.540Z,28.90
2022-08-07T18:46:24.726Z,28.90
2022-08-07T18:50:32.402Z,29.00
2022-08-07T18:52:38.825Z,29.20
2022-08-07T18:55:40.962Z,29.40
2022-08-07T18:58:17.973Z,29.60
2022-08-07T19:01:01.544Z,29.80
2022-08-07T19:03:56.598Z,29.70
2022-08-07T19:06:37.802Z,30.30
2022-08-07T19:09:56.322Z,30.10
2022-08-07T19:12:05.601Z,30.20
2022-08-07T19:14:52.885Z,30.30
2022-08-07T19:17:58.974Z,31.00
2022-08-07T19:20:30.510Z,31.20
2022-08-07T19:23:57.179Z,31.40
2022-08-07T19:26:25.142Z,31.40
2022-08-07T19:31:05.188Z,31.40
2022-08-07T19:32:17.488Z,31.50
2022-08-07T19:35:05.867Z,31.50
2022-08-07T19:37:57.273Z,31.70
2022-08-07T19:40:31.474Z,32.10
2022-08-07T19:43:08.780Z,32.50
2022-08-07T19:46:08.216Z,32.80
2022-08-07T19:48:42.216Z,32.80
2022-08-07T19:51:19.982Z,33.80
2022-08-07T19:54:32.105Z,33.50
2022-08-07T19:58:00.227Z,33.80
2022-08-07T19:59:40.611Z,34.50
2022-08-07T20:02:29.416Z,34.90
2022-08-07T20:04:57.871Z,36.10
2022-08-07T20:07:46.182Z,35.60
2022-08-07T20:10:36.644Z,35.80
2022-08-07T20:13:22.367Z,36.10
2022-08-07T20:15:54.016Z,36.70
2022-08-07T20:18:32.548Z,36.70
2022-08-07T20:21:21.063Z,37.10
2022-08-07T20:24:03.665Z,37.40
2022-08-07T20:26:44.796Z,37.60
2022-08-07T20:29:49.434Z,37.30
2022-08-07T20:32:11.483Z,37.50
2022-08-07T20:34:52.915Z,37.30
2022-08-07T20:37:29.840Z,37.00
2022-08-07T20:40:30.725Z,37.60
2022-08-07T20:42:56.671Z,37.30
2022-08-07T20:46:24.250Z,37.70
2022-08-07T20:48:28.269Z,37.70
2022-08-07T20:51:02.229Z,37.80
2022-08-07T20:54:02.180Z,38.20
2022-08-07T20:56:28.770Z,38.00
2022-08-07T20:59:00.874Z,39.00
2022-08-07T21:01:45.565Z,38.40
2022-08-07T21:04:23.603Z,37.90
2022-08-07T21:06:57.345Z,37.60
2022-08-07T21:09:35.331Z,37.70
2022-08-07T21:12:28.464Z,38.40
2022-08-07T21:15:00.975Z,38.40
2022-08-07T21:18:03.661Z,38.40
2022-08-07T21:20:30.414Z,38.30
2022-08-07T21:23:21.209Z,38.40
2022-08-07T21:26:17.881Z,39.30
2022-08-07T21:29:12.799Z,40.30
2022-08-07T21:32:47.308Z,40.90
2022-08-07T21:35:17.415Z,40.30
2022-08-07T21:38:21.531Z,40.10
2022-08-07T21:41:13.068Z,41.10
2022-08-07T21:44:01.579Z,41.10
2022-08-07T21:46:54.702Z,41.20
2022-08-07T21:49:29.537Z,41.90
2022-08-07T21:52:16.872Z,42.10
2022-08-07T21:55:04.281Z,42.50
2022-08-07T21:58:01.420Z,42.80
2022-08-07T22:00:31.351Z,43.10
2022-08-07T22:03:10.416Z,43.00
2022-08-07T22:05:52.228Z,43.70
2022-08-07T22:08:24.609Z,44.00
2022-08-07T22:11:00.316Z,44.00
2022-08-07T22:13:50.964Z,44.50
2022-08-07T22:16:39.329Z,44.40
2022-08-07T22:19:20.004Z,45.10
2022-08-07T22:22:20.990Z,45.40
2022-08-07T22:24:55.069Z,45.30
2022-08-07T22:28:06.427Z,45.40
2022-08-07T22:30:26.401Z,46.20
2022-08-07T22:33:11.075Z,45.80
2022-08-07T22:35:56.203Z,46.30
2022-08-07T22:39:01.245Z,46.40
2022-08-07T22:42:25.536Z,46.20
2022-08-07T22:44:59.408Z,46.40
2022-08-07T22:48:31.825Z,46.20
2022-08-07T22:51:04.196Z,46.90
2022-08-07T22:54:08.698Z,46.50
2022-08-07T22:57:02.887Z,47.40
2022-08-07T22:59:51.154Z,47.30
2022-08-07T23:02:37.217Z,47.20
2022-08-07T23:06:08.458Z,47.30
2022-08-07T23:10:04.865Z,47.80
2022-08-07T23:12:20.938Z,47.50
2022-08-07T23:16:04.884Z,48.00
2022-08-07T23:18:35.937Z,48.10
2022-08-07T23:21:36.442Z,47.90
2022-08-07T23:24:16.858Z,48.00
2022-08-07T23:26:50.247Z,48.70
2022-08-07T23:30:35.562Z,48.80
2022-08-07T23:34:34.162Z,48.80
2022-08-07T23:36:04.324Z,49.30
2022-08-07T23:38:54.886Z,49.60
2022-08-07T23:41:47.730Z,49.40
2022-08-07T23:44:59.141Z,49.30
2022-08-07T23:48:02.784Z,49.50
2022-08-07T23:50:45.112Z,50.10
2022-08-07T23:53:31.365Z,50.10
2022-08-07T23:56:53.441Z,50.50
